This is the latest recevied weather packets stored in our database for station/object IZ1UKX-13. If no packets are shown the sender has not sent any weather packets the latest 10 day(s).
| Time | Temp. | Humidity | Pressure | Rain* | Wind** | Luminosity | Snow |
|---|---|---|---|---|---|---|---|
| 1778265155 | 15° C | 80% | 1023.8 hPa | 0 mm | - | 0 W/m² | - |
| 1778264900 | 15° C | 80% | 1024 hPa | 0 mm | - | 0 W/m² | - |
| 1778264601 | 15.56° C | 79% | 1024 hPa | 0 mm | - | 0 W/m² | - |
| 1778264300 | 15.56° C | 78% | 1023.6 hPa | 0 mm | - | 0 W/m² | - |
| 1778264000 | 17.22° C | 74% | 1023.6 hPa | 0 mm | - | 0 W/m² | - |
| 1778262381 | 17.22° C | 74% | 1023.6 hPa | 0 mm | - | 0 W/m² | - |
| 1778262081 | 17.22° C | 74% | 1023.6 hPa | 0 mm | - | 0 W/m² | - |
| 1778261781 | 17.22° C | 73% | 1023.6 hPa | 0 mm | - | 0 W/m² | - |
| 1778261481 | 17.22° C | 72% | 1023.6 hPa | 0 mm | - | 0 W/m² | - |
| 1778261181 | 17.78° C | 73% | 1023.6 hPa | 0 mm | - | 0 W/m² | - |
| 1778260881 | 17.78° C | 72% | 1023.6 hPa | 0 mm | - | 0 W/m² | - |
| 1778260581 | 17.78° C | 72% | 1023.6 hPa | 0 mm | - | 0 W/m² | - |
| 1778260281 | 17.78° C | 71% | 1023.2 hPa | 0 mm | - | 0 W/m² | - |
| 1778259982 | 18.33° C | 70% | 1023.2 hPa | 0 mm | - | 0 W/m² | - |
| 1778259681 | 18.33° C | 69% | 1023.2 hPa | 0 mm | - | 0 W/m² | - |
| 1778259381 | 18.33° C | 67% | 1023.2 hPa | 0 mm | - | 0 W/m² | - |
| 1778259081 | 18.89° C | 67% | 1023.2 hPa | 0 mm | - | 0 W/m² | - |
| 1778258781 | 19.44° C | 65% | 1023.2 hPa | 0 mm | - | 0 W/m² | - |
| 1778258481 | 20° C | 63% | 1022.7 hPa | 0 mm | - | 0 W/m² | - |
| 1778258182 | 20.56° C | 60% | 1022.7 hPa | 0 mm | - | 0 W/m² | - |
| 1778257881 | 21.67° C | 59% | 1022.7 hPa | 0 mm | - | 0 W/m² | - |
| 1778257581 | 23.33° C | 55% | 1022.3 hPa | 0 mm | - | 0 W/m² | - |
| 1778257281 | 23.33° C | 56% | 1022.3 hPa | 0 mm | - | 0 W/m² | - |
| 1778256981 | 23.33° C | 55% | 1022.3 hPa | 0 mm | - | 0 W/m² | - |
| 1778256681 | 23.33° C | 55% | 1022.3 hPa | 0 mm | - | 0 W/m² | - |
* Rain latest hour (hover to see other rain measurements)
** Current wind speed in m/s (hover to see current wind gust speed)